Time;durP1;ratioP1;P1;durP2;ratioP2;P2;SDS_P1;SDS_P2;PMS_P1;PMS_P2;Temp;Humidity;BMP_temperature;BMP_pressure;BME280_temperature;BME280_humidity;BME280_pressure;Samples;Min_cycle;Max_cycle;Signal;HPM_P1;HPM_P2
2021/10/11 00:00:29;;;;;;;19.17;17.20;;;5.40;1.00;;;;;;5058404;28;20224;-79
2021/10/11 00:02:55;;;;;;;22.70;17.42;;;5.30;1.00;;;;;;5054484;28;21080;-80
2021/10/11 00:05:22;;;;;;;21.15;17.55;;;5.20;1.00;;;;;;5054641;28;20236;-80
2021/10/11 00:07:49;;;;;;;21.05;16.98;;;5.10;1.00;;;;;;5050167;28;20389;-80
2021/10/11 00:10:19;;;;;;;21.98;18.83;;;5.00;1.00;;;;;;5059979;28;20735;-81
2021/10/11 00:12:47;;;;;;;19.85;17.15;;;5.00;1.00;;;;;;5052678;28;20236;-80
2021/10/11 00:15:15;;;;;;;21.65;16.88;;;4.90;1.00;;;;;;5055283;28;20224;-81
2021/10/11 00:17:42;;;;;;;22.00;18.23;;;5.00;1.00;;;;;;5055390;28;20225;-79
2021/10/11 00:20:10;;;;;;;20.20;18.02;;;4.90;1.00;;;;;;5053089;28;20233;-80
2021/10/11 00:22:37;;;;;;;22.00;18.55;;;4.90;1.00;;;;;;5051443;28;20241;-80
2021/10/11 00:25:04;;;;;;;22.70;19.60;;;4.90;1.00;;;;;;5052927;28;21102;-80
2021/10/11 00:27:31;;;;;;;23.92;21.35;;;4.90;1.00;;;;;;5040852;28;21194;-80
2021/10/11 00:29:58;;;;;;;22.65;18.05;;;4.80;1.00;;;;;;5052844;28;20321;-81
2021/10/11 00:32:26;;;;;;;22.88;18.40;;;4.90;1.00;;;;;;5055675;28;20213;-80
2021/10/11 00:34:53;;;;;;;20.80;17.70;;;4.90;1.00;;;;;;5056329;28;20307;-79
2021/10/11 00:37:20;;;;;;;21.23;18.17;;;4.80;1.00;;;;;;5053754;28;20225;-80
2021/10/11 00:39:47;;;;;;;22.13;18.25;;;4.80;1.00;;;;;;5058673;28;20262;-81
2021/10/11 00:42:13;;;;;;;22.17;17.15;;;4.80;1.00;;;;;;5076822;28;20225;-81
2021/10/11 00:44:40;;;;;;;24.25;19.73;;;4.80;1.00;;;;;;5074060;28;20328;-81
2021/10/11 00:47:07;;;;;;;21.88;19.23;;;4.80;1.00;;;;;;5056657;28;21060;-81
2021/10/11 00:49:35;;;;;;;21.50;19.10;;;4.80;1.00;;;;;;5055242;28;20228;-81
2021/10/11 00:52:02;;;;;;;23.27;18.30;;;4.70;1.00;;;;;;5058626;28;20221;-81
2021/10/11 00:54:30;;;;;;;22.38;19.30;;;4.70;1.00;;;;;;5054419;28;20742;-80
2021/10/11 00:56:56;;;;;;;20.98;18.45;;;4.60;1.00;;;;;;5059482;28;20223;-81
2021/10/11 00:59:23;;;;;;;22.58;19.48;;;4.60;1.00;;;;;;5053631;28;20394;-80
2021/10/11 01:01:50;;;;;;;23.13;18.67;;;4.60;1.00;;;;;;5059199;28;20727;-80
2021/10/11 01:04:18;;;;;;;24.85;19.55;;;4.50;1.00;;;;;;5056134;28;20400;-80
2021/10/11 01:06:46;;;;;;;22.25;18.80;;;4.50;1.00;;;;;;5062520;28;20217;-81
2021/10/11 01:09:13;;;;;;;20.88;17.60;;;4.50;1.00;;;;;;5052131;28;20232;-80
2021/10/11 01:11:40;;;;;;;19.52;17.45;;;4.50;1.00;;;;;;5060144;28;20228;-80
2021/10/11 01:14:08;;;;;;;21.77;17.60;;;4.40;1.00;;;;;;5053764;28;20704;-79
2021/10/11 01:16:35;;;;;;;24.58;18.58;;;4.30;1.00;;;;;;5055211;28;20693;-81
2021/10/11 01:19:02;;;;;;;21.30;19.27;;;4.30;1.00;;;;;;5052647;28;20224;-81
2021/10/11 01:21:30;;;;;;;20.13;17.45;;;4.20;1.00;;;;;;5053011;28;21637;-81
2021/10/11 01:23:56;;;;;;;19.60;17.35;;;4.20;1.00;;;;;;5052727;28;20228;-81
2021/10/11 01:26:23;;;;;;;21.70;17.50;;;4.10;1.00;;;;;;5054240;28;21131;-81
2021/10/11 01:28:50;;;;;;;22.20;19.02;;;4.10;1.00;;;;;;5056356;28;20225;-81
2021/10/11 01:31:18;;;;;;;20.10;17.77;;;4.10;1.00;;;;;;5053546;28;21298;-81
2021/10/11 01:33:44;;;;;;;21.67;19.00;;;4.20;1.00;;;;;;5055389;28;20229;-79
2021/10/11 01:36:11;;;;;;;25.30;20.15;;;4.30;1.00;;;;;;5053716;28;20231;-81
2021/10/11 01:38:39;;;;;;;24.77;19.95;;;4.40;1.00;;;;;;5055815;28;20236;-80
2021/10/11 01:41:06;;;;;;;26.95;20.02;;;4.30;1.00;;;;;;5062228;28;20221;-80
2021/10/11 01:43:32;;;;;;;25.10;20.63;;;4.30;1.00;;;;;;5074798;28;20644;-80
2021/10/11 01:45:59;;;;;;;21.70;19.00;;;4.30;1.00;;;;;;5078106;28;20324;-80
2021/10/11 01:48:26;;;;;;;22.17;19.90;;;4.30;1.00;;;;;;5060907;28;20225;-80
2021/10/11 01:50:53;;;;;;;21.70;19.02;;;4.20;1.00;;;;;;5054469;28;20220;-80
2021/10/11 01:53:20;;;;;;;23.05;19.65;;;4.20;1.00;;;;;;5052577;28;20231;-80
2021/10/11 01:55:48;;;;;;;23.85;20.00;;;4.10;1.00;;;;;;5056844;28;20244;-81
2021/10/11 01:58:15;;;;;;;25.65;19.80;;;4.10;1.00;;;;;;5056539;28;20232;-81
2021/10/11 02:00:41;;;;;;;22.40;18.55;;;4.20;1.00;;;;;;5051871;28;20248;-80
2021/10/11 02:03:08;;;;;;;21.92;19.58;;;4.20;1.00;;;;;;5055489;28;20221;-81
2021/10/11 02:05:35;;;;;;;22.90;18.90;;;4.30;1.00;;;;;;5053554;28;20232;-80
2021/10/11 02:08:02;;;;;;;27.38;20.90;;;4.30;1.00;;;;;;5053909;28;20217;-79
2021/10/11 02:10:28;;;;;;;21.77;19.45;;;4.40;1.00;;;;;;5055657;28;20228;-80
2021/10/11 02:12:57;;;;;;;23.67;18.80;;;4.40;1.00;;;;;;5056409;28;20250;-79
2021/10/11 02:15:24;;;;;;;21.77;19.13;;;4.50;1.00;;;;;;5058556;28;20670;-80
2021/10/11 02:17:50;;;;;;;27.60;20.67;;;4.50;1.00;;;;;;5060885;28;20227;-81
2021/10/11 02:20:17;;;;;;;23.70;19.50;;;4.50;1.00;;;;;;5052541;28;20237;-79
2021/10/11 02:22:44;;;;;;;24.35;18.90;;;4.50;1.00;;;;;;5061540;28;20228;-80
2021/10/11 02:25:11;;;;;;;22.52;19.45;;;4.40;1.00;;;;;;5060199;28;20232;-79
2021/10/11 02:27:38;;;;;;;20.63;18.40;;;4.50;1.00;;;;;;5055617;28;21426;-80
2021/10/11 02:30:08;;;;;;;23.08;18.35;;;4.50;1.00;;;;;;5060547;28;20278;-80
2021/10/11 02:32:35;;;;;;;23.27;18.85;;;4.60;1.00;;;;;;5053698;28;20236;-80
2021/10/11 02:35:02;;;;;;;20.23;18.08;;;4.60;1.00;;;;;;5058916;28;20307;-81
2021/10/11 02:37:28;;;;;;;22.00;18.88;;;4.70;1.00;;;;;;5052925;28;20232;-81
2021/10/11 02:39:56;;;;;;;22.98;19.90;;;4.70;1.00;;;;;;5054113;28;20232;-81
2021/10/11 02:42:22;;;;;;;27.05;20.60;;;4.70;1.00;;;;;;5064085;28;20280;-81
2021/10/11 02:44:49;;;;;;;20.83;18.15;;;4.80;1.00;;;;;;5080738;28;20244;-80
2021/10/11 02:47:17;;;;;;;23.25;19.95;;;4.80;1.00;;;;;;5053494;28;20310;-80
2021/10/11 02:49:44;;;;;;;21.23;18.88;;;4.90;1.00;;;;;;5054992;28;20225;-81
2021/10/11 02:52:11;;;;;;;25.17;18.70;;;4.90;1.00;;;;;;5051255;28;20322;-81
2021/10/11 02:54:37;;;;;;;27.52;18.48;;;4.90;1.00;;;;;;5054191;28;21078;-81
2021/10/11 02:57:05;;;;;;;22.27;18.70;;;4.90;1.00;;;;;;5055611;28;20221;-81
2021/10/11 02:59:32;;;;;;;20.50;17.65;;;5.00;1.00;;;;;;5068655;27;20362;-81
2021/10/11 03:01:58;;;;;;;18.42;16.52;;;5.10;1.00;;;;;;5054134;28;20599;-80
2021/10/11 03:04:26;;;;;;;19.65;17.60;;;5.10;1.00;;;;;;5055058;28;20293;-80
2021/10/11 03:06:53;;;;;;;21.00;18.50;;;5.10;1.00;;;;;;5056562;28;20223;-80
2021/10/11 03:09:20;;;;;;;19.23;16.85;;;5.20;1.00;;;;;;5054601;28;20232;-79
2021/10/11 03:11:46;;;;;;;18.88;16.85;;;5.20;1.00;;;;;;5052323;28;20331;-80
2021/10/11 03:14:13;;;;;;;21.67;17.60;;;5.30;1.00;;;;;;5053446;28;21025;-80
2021/10/11 03:16:40;;;;;;;23.80;16.92;;;5.30;1.00;;;;;;5047877;28;20225;-81
2021/10/11 03:19:06;;;;;;;24.75;17.58;;;5.30;1.00;;;;;;5053114;28;20224;-80
2021/10/11 03:21:34;;;;;;;19.90;17.08;;;5.30;1.00;;;;;;5050726;28;20315;-81
2021/10/11 03:24:01;;;;;;;21.52;16.45;;;5.40;1.00;;;;;;5057248;28;20234;-80
2021/10/11 03:26:28;;;;;;;20.67;17.98;;;5.40;1.00;;;;;;5049285;28;20220;-80
2021/10/11 03:28:54;;;;;;;23.10;17.38;;;5.40;1.00;;;;;;5053937;28;20225;-79
2021/10/11 03:31:21;;;;;;;20.58;17.20;;;5.40;1.00;;;;;;5049675;28;20233;-80
2021/10/11 03:33:48;;;;;;;21.30;17.25;;;5.40;1.00;;;;;;5054993;28;20368;-80
2021/10/11 03:36:14;;;;;;;21.00;17.67;;;5.50;1.00;;;;;;5051732;28;20232;-81
2021/10/11 03:38:42;;;;;;;18.40;16.52;;;5.50;1.00;;;;;;5053790;28;20216;-80
2021/10/11 03:41:09;;;;;;;18.92;15.95;;;5.50;1.00;;;;;;5059906;28;20232;-81
2021/10/11 03:43:36;;;;;;;19.85;17.10;;;5.40;1.00;;;;;;5074961;28;20682;-80
2021/10/11 03:46:02;;;;;;;19.83;15.98;;;5.40;1.00;;;;;;5061014;28;20233;-80
2021/10/11 03:48:29;;;;;;;20.13;16.75;;;5.50;1.00;;;;;;5055349;28;20264;-80
2021/10/11 03:50:56;;;;;;;21.63;17.27;;;5.50;1.00;;;;;;5054360;28;20778;-79
2021/10/11 03:53:22;;;;;;;17.15;15.35;;;5.50;1.00;;;;;;5054413;28;20232;-81
2021/10/11 03:55:51;;;;;;;18.60;16.35;;;5.50;1.00;;;;;;5053893;28;20224;-81
2021/10/11 03:58:17;;;;;;;23.25;17.27;;;5.50;1.00;;;;;;5052314;28;20232;-81
2021/10/11 04:00:44;;;;;;;20.45;16.85;;;5.50;1.00;;;;;;5056689;28;20237;-81
2021/10/11 04:03:11;;;;;;;19.98;17.10;;;5.50;1.00;;;;;;5054421;28;20240;-80
2021/10/11 04:05:38;;;;;;;18.73;16.70;;;5.50;1.00;;;;;;5054410;28;20228;-80
2021/10/11 04:08:10;;;;;;;19.58;16.70;;;5.40;1.00;;;;;;5055787;28;20255;-82
2021/10/11 04:10:47;;;;;;;19.05;16.40;;;5.40;1.00;;;;;;5060759;28;20221;-81
2021/10/11 04:13:19;;;;;;;17.90;15.40;;;5.50;1.00;;;;;;5057528;28;20232;-80
2021/10/11 04:15:48;;;;;;;26.35;19.95;;;5.50;1.00;;;;;;5061797;28;20233;-80
2021/10/11 04:18:14;;;;;;;20.63;16.92;;;5.50;1.00;;;;;;5057494;28;20252;-79
2021/10/11 04:20:41;;;;;;;18.60;16.58;;;5.60;1.00;;;;;;5056885;28;20237;-80
2021/10/11 04:23:08;;;;;;;20.83;18.50;;;5.60;1.00;;;;;;5065850;28;20683;-81
2021/10/11 04:25:35;;;;;;;22.50;16.77;;;5.60;1.00;;;;;;5057821;28;20217;-82
2021/10/11 04:28:02;;;;;;;19.27;15.75;;;5.60;1.00;;;;;;5050866;28;20229;-80
2021/10/11 04:30:30;;;;;;;19.60;16.45;;;5.60;1.00;;;;;;5061550;28;21220;-81
2021/10/11 04:32:57;;;;;;;25.40;18.20;;;5.60;1.00;;;;;;5053561;28;20363;-81
2021/10/11 04:35:25;;;;;;;23.90;17.90;;;5.60;1.00;;;;;;5058078;28;20225;-81
2021/10/11 04:37:52;;;;;;;20.95;16.35;;;5.70;1.00;;;;;;5056713;28;20271;-81
2021/10/11 04:40:19;;;;;;;21.48;17.60;;;5.70;1.00;;;;;;5057191;28;20232;-81
2021/10/11 04:42:46;;;;;;;20.90;16.58;;;5.80;1.00;;;;;;5063301;28;20223;-80
2021/10/11 04:45:13;;;;;;;20.05;17.55;;;5.80;1.00;;;;;;5080984;28;20216;-81
2021/10/11 04:47:41;;;;;;;21.92;17.98;;;5.90;1.00;;;;;;5067784;28;20223;-81
2021/10/11 04:50:08;;;;;;;22.98;17.90;;;5.90;1.00;;;;;;5065012;28;20309;-80
2021/10/11 04:52:35;;;;;;;19.65;16.85;;;5.90;1.00;;;;;;5056660;28;20225;-80
2021/10/11 04:55:02;;;;;;;17.25;15.35;;;5.90;1.00;;;;;;5054078;28;20417;-80
2021/10/11 04:57:29;;;;;;;26.83;19.42;;;5.90;1.00;;;;;;5060761;28;20220;-80
2021/10/11 04:59:56;;;;;;;20.05;17.35;;;5.80;1.00;;;;;;5056842;28;20227;-80
2021/10/11 05:02:22;;;;;;;19.10;16.60;;;5.80;1.00;;;;;;5060451;28;20797;-81
2021/10/11 05:04:50;;;;;;;25.40;16.60;;;5.80;1.00;;;;;;5059039;28;20224;-81
2021/10/11 05:07:17;;;;;;;18.20;15.30;;;5.80;1.00;;;;;;5061293;28;20228;-81
2021/10/11 05:09:43;;;;;;;18.40;16.45;;;5.80;1.00;;;;;;5069372;28;20693;-81
2021/10/11 05:12:10;;;;;;;18.15;15.40;;;5.80;1.00;;;;;;5072120;28;20238;-78
2021/10/11 05:14:37;;;;;;;20.50;16.25;;;5.80;1.00;;;;;;5083649;28;20241;-80
2021/10/11 05:17:04;;;;;;;18.60;16.65;;;5.90;1.00;;;;;;5070228;28;20221;-80
2021/10/11 05:19:30;;;;;;;22.15;16.48;;;5.90;1.00;;;;;;5075702;28;20252;-81
2021/10/11 05:21:58;;;;;;;22.73;18.85;;;5.90;1.00;;;;;;5071677;28;21181;-81
2021/10/11 05:24:26;;;;;;;22.85;17.15;;;5.90;1.00;;;;;;5064099;28;20745;-80
2021/10/11 05:26:53;;;;;;;20.25;16.40;;;5.90;1.00;;;;;;5079160;28;20217;-82
2021/10/11 05:29:20;;;;;;;22.88;17.48;;;5.90;1.00;;;;;;5073489;28;20355;-80
2021/10/11 05:31:47;;;;;;;20.52;17.65;;;6.00;1.00;;;;;;5070548;28;20234;-81
2021/10/11 05:34:14;;;;;;;24.30;19.23;;;6.00;1.00;;;;;;5058866;28;20227;-81
2021/10/11 05:36:42;;;;;;;21.95;18.80;;;6.10;1.00;;;;;;5073239;28;20220;-82
2021/10/11 05:39:10;;;;;;;20.42;17.80;;;6.10;1.00;;;;;;5062089;28;20334;-79
2021/10/11 05:41:37;;;;;;;21.38;17.40;;;6.10;1.00;;;;;;5065385;28;20771;-83
2021/10/11 05:44:03;;;;;;;21.98;19.50;;;6.10;1.00;;;;;;5063839;28;20240;-75
2021/10/11 05:46:30;;;;;;;21.23;16.30;;;6.20;1.00;;;;;;5054915;28;20231;-77
2021/10/11 05:48:57;;;;;;;22.08;16.83;;;6.30;1.00;;;;;;5050497;28;20870;-78
2021/10/11 05:51:23;;;;;;;21.63;17.88;;;6.30;1.00;;;;;;5051917;28;20432;-76
2021/10/11 05:53:50;;;;;;;26.02;17.70;;;6.40;1.00;;;;;;5047417;28;20225;-77
2021/10/11 05:56:18;;;;;;;20.75;17.25;;;6.40;1.00;;;;;;5054841;28;20271;-78
2021/10/11 05:58:45;;;;;;;21.67;17.92;;;6.50;1.00;;;;;;5051590;28;20224;-77
2021/10/11 06:01:11;;;;;;;22.48;16.17;;;6.50;1.00;;;;;;5053885;28;20259;-76
2021/10/11 06:03:38;;;;;;;19.48;16.75;;;6.60;1.00;;;;;;5057256;28;20228;-74
2021/10/11 06:06:04;;;;;;;20.42;16.85;;;6.60;1.00;;;;;;5055494;28;20244;-76
2021/10/11 06:08:31;;;;;;;19.02;16.77;;;6.60;1.00;;;;;;5052827;28;20232;-77
2021/10/11 06:10:58;;;;;;;20.77;17.38;;;6.70;1.00;;;;;;5052494;28;20220;-77
2021/10/11 06:13:26;;;;;;;25.85;16.65;;;6.70;1.00;;;;;;5052326;28;20714;-77
2021/10/11 06:15:53;;;;;;;20.23;16.98;;;6.70;1.00;;;;;;5052831;28;22898;-76
2021/10/11 06:18:20;;;;;;;21.15;17.15;;;6.80;1.00;;;;;;5056077;28;20229;-78
2021/10/11 06:20:47;;;;;;;19.77;17.45;;;6.80;1.00;;;;;;5054469;28;21001;-76
2021/10/11 06:23:14;;;;;;;21.60;16.45;;;6.90;1.00;;;;;;5053982;28;20312;-77
2021/10/11 06:25:41;;;;;;;22.40;19.58;;;7.00;1.00;;;;;;5053983;28;20620;-76
2021/10/11 06:28:08;;;;;;;21.75;17.38;;;7.00;1.00;;;;;;5054904;28;20675;-76
2021/10/11 06:30:37;;;;;;;19.08;16.77;;;7.00;1.00;;;;;;5055806;28;20224;-76
2021/10/11 06:33:04;;;;;;;24.45;18.52;;;7.10;1.00;;;;;;5053439;28;20715;-77
2021/10/11 06:35:31;;;;;;;19.30;17.30;;;7.20;1.00;;;;;;5055719;28;20221;-76
2021/10/11 06:37:57;;;;;;;27.02;19.58;;;7.20;1.00;;;;;;5063865;28;20223;-75
2021/10/11 06:40:24;;;;;;;27.27;18.92;;;7.30;1.00;;;;;;5065670;28;20835;-76
2021/10/11 06:42:51;;;;;;;19.83;17.73;;;7.30;1.00;;;;;;5056571;28;20219;-76
2021/10/11 06:45:18;;;;;;;21.80;17.75;;;7.30;1.00;;;;;;5058691;28;20237;-76
2021/10/11 06:47:47;;;;;;;27.00;16.92;;;7.30;1.00;;;;;;5061115;28;20237;-76
2021/10/11 06:50:14;;;;;;;24.70;22.00;;;7.40;1.00;;;;;;5058104;28;20936;-76
2021/10/11 06:52:41;;;;;;;25.35;20.05;;;7.60;1.00;;;;;;5060426;28;21000;-76
2021/10/11 06:55:08;;;;;;;19.17;15.90;;;7.70;1.00;;;;;;5058966;28;20676;-77
2021/10/11 06:57:35;;;;;;;21.87;18.33;;;7.90;1.00;;;;;;5066241;28;20328;-77
2021/10/11 07:00:02;;;;;;;23.17;17.63;;;7.90;1.00;;;;;;5058088;28;21024;-77
2021/10/11 07:02:28;;;;;;;23.08;17.60;;;8.10;1.00;;;;;;5060879;28;20269;-77
2021/10/11 07:04:58;;;;;;;20.85;18.17;;;8.20;1.00;;;;;;5053157;28;20217;-77
2021/10/11 07:07:28;;;;;;;21.73;17.15;;;8.20;1.00;;;;;;5055885;28;20226;-77
2021/10/11 07:09:55;;;;;;;19.30;17.08;;;8.20;1.00;;;;;;5055057;28;20230;-77
2021/10/11 07:12:22;;;;;;;19.50;16.83;;;8.20;1.00;;;;;;5054068;28;20233;-77
2021/10/11 07:14:50;;;;;;;24.40;18.17;;;8.30;1.00;;;;;;5051679;28;20231;-77
2021/10/11 07:17:17;;;;;;;22.85;18.25;;;8.30;1.00;;;;;;5054309;28;20218;-78
2021/10/11 07:19:46;;;;;;;27.40;17.70;;;8.40;1.00;;;;;;5059799;28;20225;-77
2021/10/11 07:22:14;;;;;;;22.83;18.65;;;8.40;1.00;;;;;;5054362;28;20462;-77
2021/10/11 07:24:41;;;;;;;23.57;17.50;;;8.40;1.00;;;;;;5061038;28;21020;-77
2021/10/11 07:27:08;;;;;;;21.23;18.80;;;8.50;1.00;;;;;;5062011;28;20465;-78
2021/10/11 07:29:35;;;;;;;28.10;20.77;;;8.60;1.00;;;;;;5050593;28;20458;-76
2021/10/11 07:32:01;;;;;;;24.60;21.30;;;8.70;1.00;;;;;;5052079;28;21393;-77
2021/10/11 07:34:28;;;;;;;28.63;21.93;;;8.80;1.00;;;;;;5046381;28;20457;-77
2021/10/11 07:36:55;;;;;;;31.15;26.17;;;8.90;1.00;;;;;;5044195;28;20396;-77
2021/10/11 07:39:23;;;;;;;33.10;24.00;;;9.10;1.00;;;;;;5047011;28;20603;-76
2021/10/11 07:41:50;;;;;;;29.80;23.60;;;9.10;1.00;;;;;;5064361;28;20533;-76
2021/10/11 07:44:17;;;;;;;31.00;23.50;;;9.10;1.00;;;;;;5060755;28;20433;-77
2021/10/11 07:46:44;;;;;;;30.37;23.87;;;9.10;1.00;;;;;;5053963;28;21171;-76
2021/10/11 07:49:12;;;;;;;26.57;23.10;;;9.00;1.00;;;;;;5068461;28;20454;-77
2021/10/11 07:51:39;;;;;;;34.65;25.20;;;9.00;1.00;;;;;;5051697;28;21147;-76
2021/10/11 07:54:06;;;;;;;28.50;24.97;;;9.10;1.00;;;;;;5058611;28;20230;-77
2021/10/11 07:56:37;;;;;;;30.03;23.33;;;9.10;1.00;;;;;;5054126;28;20533;-80
2021/10/11 07:59:03;;;;;;;29.67;23.70;;;9.10;1.00;;;;;;5058392;28;20496;-76
2021/10/11 08:01:30;;;;;;;30.10;23.63;;;9.20;1.00;;;;;;5058551;28;20233;-76
2021/10/11 08:03:56;;;;;;;30.50;23.60;;;9.20;1.00;;;;;;5062341;28;20459;-78
2021/10/11 08:06:23;;;;;;;28.70;24.33;;;9.40;1.00;;;;;;5061460;28;20462;-75
2021/10/11 08:08:50;;;;;;;34.07;27.13;;;9.40;1.00;;;;;;5063901;28;21381;-75
2021/10/11 08:11:16;;;;;;;34.97;25.57;;;9.60;1.00;;;;;;5059495;28;20564;-76
2021/10/11 08:13:44;;;;;;;30.57;24.07;;;9.70;1.00;;;;;;5061525;28;21362;-77
2021/10/11 08:16:11;;;;;;;30.93;24.23;;;9.80;1.00;;;;;;5072953;28;20465;-77
2021/10/11 08:18:37;;;;;;;31.23;23.90;;;9.90;1.00;;;;;;5065399;28;20469;-77
2021/10/11 08:21:05;;;;;;;27.67;24.13;;;10.00;1.00;;;;;;5053461;28;20437;-76
2021/10/11 08:23:35;;;;;;;33.47;25.47;;;10.20;1.00;;;;;;5044728;28;20442;-75
2021/10/11 08:26:02;;;;;;;29.70;24.90;;;10.20;1.00;;;;;;5062463;28;22240;-77
2021/10/11 08:28:29;;;;;;;31.50;24.30;;;10.20;1.00;;;;;;5054838;28;20541;-77
2021/10/11 08:30:57;;;;;;;32.43;24.63;;;10.20;1.00;;;;;;5052533;28;21266;-77
2021/10/11 08:33:23;;;;;;;31.13;25.93;;;10.10;1.00;;;;;;5057704;28;20448;-77
2021/10/11 08:35:50;;;;;;;34.77;25.97;;;10.10;1.00;;;;;;5059743;28;20456;-77
2021/10/11 08:38:17;;;;;;;32.20;26.73;;;10.00;1.00;;;;;;5059014;28;20474;-78
2021/10/11 08:40:43;;;;;;;32.23;26.53;;;10.00;1.00;;;;;;5053599;28;20444;-77
2021/10/11 08:43:10;;;;;;;33.57;27.70;;;10.00;1.00;;;;;;5061960;28;20444;-78
2021/10/11 08:45:38;;;;;;;34.17;26.93;;;10.10;1.00;;;;;;5063152;28;21283;-78
2021/10/11 08:48:06;;;;;;;34.10;25.63;;;10.10;1.00;;;;;;5064008;28;20455;-77
2021/10/11 08:50:33;;;;;;;34.70;26.40;;;10.20;1.00;;;;;;5061136;28;21814;-76
2021/10/11 08:53:00;;;;;;;34.87;26.20;;;10.30;1.00;;;;;;5064289;28;20525;-78
2021/10/11 08:55:27;;;;;;;32.60;26.77;;;10.50;1.00;;;;;;5074256;28;20555;-78
2021/10/11 08:58:01;;;;;;;35.30;27.17;;;10.60;1.00;;;;;;5077899;27;20496;-77
2021/10/11 09:00:28;;;;;;;32.30;25.40;;;10.60;1.00;;;;;;5063250;28;20423;-77
2021/10/11 09:02:56;;;;;;;35.37;27.97;;;10.70;1.00;;;;;;5060824;28;20447;-77
2021/10/11 09:05:26;;;;;;;33.47;27.37;;;10.70;1.00;;;;;;5060589;28;20463;-76
2021/10/11 09:08:04;;;;;;;36.70;31.30;;;10.80;1.00;;;;;;5060742;28;20455;-78
2021/10/11 09:10:32;;;;;;;34.57;28.27;;;11.10;1.00;;;;;;5061138;28;20431;-77
2021/10/11 09:12:59;;;;;;;39.47;29.80;;;11.60;1.00;;;;;;5059542;28;20440;-78
2021/10/11 09:15:30;;;;;;;35.53;28.53;;;12.00;1.00;;;;;;5065223;28;20640;-78
2021/10/11 09:18:00;;;;;;;35.07;28.37;;;12.20;1.00;;;;;;5061774;28;20559;-77
2021/10/11 09:20:29;;;;;;;32.63;27.30;;;12.20;1.00;;;;;;5064181;28;20950;-77
2021/10/11 09:22:57;;;;;;;30.53;26.80;;;12.50;1.00;;;;;;5057916;28;20483;-78
2021/10/11 09:25:34;;;;;;;31.33;25.43;;;12.60;1.00;;;;;;5061425;28;20491;-79
2021/10/11 09:28:01;;;;;;;36.63;27.97;;;12.70;1.00;;;;;;5064707;28;20517;-77
2021/10/11 09:30:29;;;;;;;34.60;27.40;;;12.70;1.00;;;;;;5061631;28;20436;-77
2021/10/11 09:33:07;;;;;;;30.00;25.20;;;12.90;1.00;;;;;;5065191;28;20456;-78
2021/10/11 09:35:36;;;;;;;34.13;26.50;;;13.00;1.00;;;;;;5064129;28;20460;-78
2021/10/11 09:38:03;;;;;;;28.70;24.93;;;13.00;1.00;;;;;;5062632;28;20471;-76
2021/10/11 09:40:40;;;;;;;31.87;25.30;;;12.90;1.00;;;;;;5054471;28;20460;-76
2021/10/11 09:43:13;;;;;;;32.53;25.93;;;13.00;1.00;;;;;;5061252;28;20499;-76
2021/10/11 09:45:40;;;;;;;32.37;24.33;;;13.00;1.00;;;;;;5056775;28;20526;-75
2021/10/11 09:48:08;;;;;;;28.90;24.43;;;13.10;1.00;;;;;;5059534;28;20460;-76
2021/10/11 09:50:40;;;;;;;29.87;23.90;;;13.20;1.00;;;;;;5058329;28;20462;-76
2021/10/11 09:53:09;;;;;;;32.50;24.50;;;13.30;1.00;;;;;;5058131;28;20475;-76
2021/10/11 09:55:38;;;;;;;31.07;24.23;;;13.50;1.00;;;;;;5059907;28;21025;-77
2021/10/11 09:58:06;;;;;;;29.30;24.00;;;13.70;1.00;;;;;;5052686;28;20455;-77
2021/10/11 10:00:33;;;;;;;27.90;23.87;;;14.10;1.00;;;;;;5055803;28;21067;-76
2021/10/11 10:03:00;;;;;;;29.03;24.47;;;15.00;1.00;;;;;;5053310;28;20560;-76
2021/10/11 10:05:33;;;;;;;28.43;24.13;;;16.00;1.00;;;;;;5053653;28;20452;-77
2021/10/11 10:08:06;;;;;;;27.50;23.07;;;16.30;1.00;;;;;;5056477;28;20501;-77
2021/10/11 10:10:34;;;;;;;26.90;22.30;;;16.30;1.00;;;;;;5057398;28;20448;-76
2021/10/11 10:13:01;;;;;;;28.53;22.87;;;16.70;1.00;;;;;;5051453;28;20468;-76
2021/10/11 10:15:31;;;;;;;31.10;22.73;;;17.10;1.00;;;;;;5054379;28;20454;-75
2021/10/11 10:18:06;;;;;;;26.37;23.47;;;17.00;1.00;;;;;;5052851;28;20466;-76
2021/10/11 10:20:33;;;;;;;27.10;20.30;;;16.90;1.00;;;;;;5054919;28;20441;-75
2021/10/11 10:23:02;;;;;;;22.27;19.80;;;17.70;1.00;;;;;;5053531;28;20479;-78
2021/10/11 10:25:29;;;;;;;20.83;18.30;;;18.60;1.00;;;;;;5057005;28;20459;-76
2021/10/11 10:28:10;;;;;;;25.40;19.87;;;19.10;1.00;;;;;;5052865;28;20593;-77
2021/10/11 10:30:37;;;;;;;24.13;20.40;;;19.10;1.00;;;;;;5053070;28;20571;-76
2021/10/11 10:33:05;;;;;;;23.30;20.73;;;18.60;1.00;;;;;;5051072;28;20959;-77
2021/10/11 10:35:34;;;;;;;23.20;19.27;;;17.90;1.00;;;;;;5062183;28;21165;-76
2021/10/11 10:38:02;;;;;;;21.93;18.90;;;17.30;1.00;;;;;;5071263;28;21686;-77
2021/10/11 10:40:31;;;;;;;23.50;20.33;;;17.00;1.00;;;;;;5054818;28;20441;-77
2021/10/11 10:43:07;;;;;;;21.73;18.57;;;17.00;1.00;;;;;;5060194;28;20536;-76
2021/10/11 10:45:35;;;;;;;22.70;17.80;;;17.80;1.00;;;;;;5058370;28;20436;-76
2021/10/11 10:48:02;;;;;;;21.40;16.93;;;19.00;1.00;;;;;;5062334;28;20473;-76
2021/10/11 10:50:29;;;;;;;20.47;17.63;;;20.30;1.00;;;;;;5059853;28;20437;-76
2021/10/11 10:52:59;;;;;;;19.27;17.13;;;20.50;1.00;;;;;;5057095;28;20464;-79
2021/10/11 10:55:27;;;;;;;18.90;16.87;;;20.50;1.00;;;;;;5059113;28;20447;-76
2021/10/11 10:57:55;;;;;;;18.80;16.17;;;20.60;1.00;;;;;;5058920;28;21119;-76
2021/10/11 11:00:22;;;;;;;17.37;15.57;;;20.40;1.00;;;;;;5063667;28;20456;-76
2021/10/11 11:02:50;;;;;;;18.70;14.80;;;19.80;1.00;;;;;;5058468;28;21038;-75
2021/10/11 11:05:18;;;;;;;18.10;15.30;;;19.10;1.00;;;;;;5060951;28;20536;-76
2021/10/11 11:07:47;;;;;;;21.57;15.37;;;18.90;1.00;;;;;;5057698;28;20451;-77
2021/10/11 11:10:15;;;;;;;17.00;13.53;;;19.60;1.00;;;;;;5058447;28;20547;-76
2021/10/11 11:12:46;;;;;;;16.77;13.93;;;21.60;1.00;;;;;;5053016;28;21914;-77
2021/10/11 11:15:26;;;;;;;17.70;13.60;;;23.80;1.00;;;;;;5054026;28;20460;-76
2021/10/11 11:17:54;;;;;;;15.60;13.67;;;25.80;1.00;;;;;;5056153;28;20459;-76
2021/10/11 11:20:24;;;;;;;16.03;13.70;;;26.90;1.00;;;;;;5057556;28;21292;-75
2021/10/11 11:22:52;;;;;;;16.40;13.80;;;27.50;1.00;;;;;;5056450;28;20458;-75
2021/10/11 11:25:26;;;;;;;16.57;13.27;;;28.00;1.00;;;;;;5054571;28;20461;-76
2021/10/11 11:27:56;;;;;;;10.97;9.87;;;28.20;1.00;;;;;;5058613;28;20465;-77
2021/10/11 11:30:24;;;;;;;11.37;10.13;;;27.70;1.00;;;;;;5058078;28;20462;-78
2021/10/11 11:32:52;;;;;;;11.30;9.77;;;27.00;1.00;;;;;;5058138;28;20456;-78
2021/10/11 11:35:21;;;;;;;11.57;9.00;;;26.00;1.00;;;;;;5053062;28;21242;-77
2021/10/11 11:37:49;;;;;;;10.07;8.13;;;25.30;1.00;;;;;;5058718;28;20448;-78
2021/10/11 11:40:18;;;;;;;12.90;8.43;;;23.70;1.00;;;;;;5055010;28;20455;-77
2021/10/11 11:42:46;;;;;;;10.73;8.80;;;22.80;1.00;;;;;;5060921;28;20469;-77
2021/10/11 11:45:14;;;;;;;10.73;7.70;;;24.20;1.00;;;;;;5057673;28;20494;-78
2021/10/11 11:47:41;;;;;;;9.37;8.37;;;25.00;1.00;;;;;;5059125;28;20431;-78
2021/10/11 11:50:22;;;;;;;13.20;9.20;;;25.20;1.00;;;;;;5058746;28;20453;-77
2021/10/11 11:52:59;;;;;;;12.80;10.90;;;24.70;1.00;;;;;;5057310;28;20713;-77
2021/10/11 11:55:25;;;;;;;12.30;10.00;;;24.70;1.00;;;;;;5057832;28;21796;-78
2021/10/11 11:57:52;;;;;;;11.07;9.17;;;25.80;1.00;;;;;;5059309;28;20457;-76
2021/10/11 12:00:23;;;;;;;12.03;9.00;;;26.70;1.00;;;;;;5061986;28;20448;-76
2021/10/11 12:02:51;;;;;;;12.10;9.90;;;26.60;1.00;;;;;;5056666;28;22584;-78
2021/10/11 12:05:19;;;;;;;9.80;8.17;;;25.70;1.00;;;;;;5053244;28;20726;-77
2021/10/11 12:07:46;;;;;;;13.90;9.80;;;24.70;1.00;;;;;;5052623;28;20469;-77
2021/10/11 12:10:17;;;;;;;13.50;10.27;;;24.30;1.00;;;;;;5055350;28;20440;-78
2021/10/11 12:12:44;;;;;;;10.63;8.03;;;24.30;1.00;;;;;;5057556;28;21037;-77
2021/10/11 12:15:20;;;;;;;11.80;9.17;;;24.00;1.00;;;;;;5056103;28;20455;-77
2021/10/11 12:17:47;;;;;;;10.50;8.13;;;22.60;1.00;;;;;;5059074;28;20465;-77
2021/10/11 12:20:15;;;;;;;9.90;6.23;;;21.60;1.00;;;;;;5051489;28;22116;-77
2021/10/11 12:22:42;;;;;;;10.10;7.03;;;22.00;1.00;;;;;;5059720;28;20563;-77
2021/10/11 12:25:11;;;;;;;12.93;7.87;;;22.30;1.00;;;;;;5055653;28;20546;-77
2021/10/11 12:27:37;;;;;;;12.43;9.17;;;21.60;1.00;;;;;;5060782;28;20920;-76
2021/10/11 12:30:13;;;;;;;9.50;7.90;;;20.60;1.00;;;;;;5054413;28;20751;-77
2021/10/11 12:32:41;;;;;;;13.07;7.83;;;19.40;1.00;;;;;;5057712;28;20434;-78
2021/10/11 12:35:08;;;;;;;11.10;8.27;;;18.70;1.00;;;;;;5050583;28;21038;-77
2021/10/11 12:37:38;;;;;;;11.27;7.90;;;18.10;1.00;;;;;;5055417;28;20455;-78
2021/10/11 12:40:06;;;;;;;10.53;6.77;;;17.70;1.00;;;;;;5050743;28;20443;-78
2021/10/11 12:42:43;;;;;;;8.50;5.50;;;17.30;1.00;;;;;;5054978;28;20481;-77
2021/10/11 12:45:12;;;;;;;8.30;5.97;;;16.90;1.00;;;;;;5058059;28;20471;-77
2021/10/11 12:47:41;;;;;;;10.00;6.10;;;16.60;1.00;;;;;;5054654;28;20568;-76